Weather observations for the past three days for
Fairbanks, Eielson Air Force Base
| Date | Time (akdt) | Wind (mph) | Vis. (mi.) | Weather | Sky Cond. | Temperature (ºF) | Relative Humidity | Wind Chill (°F) | Heat Index (°F) | Pressure | Precipitation (in) | ||||||
|---|---|---|---|---|---|---|---|---|---|---|---|---|---|---|---|---|---|
| Air | Dwpt | 6 hour | altimeter (in) | sea level (mb) | 1 hr | 3 hr | 6 hr | ||||||||||
| Max. | Min. | ||||||||||||||||
| 06 | 03:55 | SW 3 | 10.00 | Overcast | SCT009 BKN015 OVC046 | 38.1 | 34.9 | 43.2 | 36.7 | 88% | 29.78 | 1009.1 | |||||
| 06 | 02:55 | SW 5 | 10.00 | Light Showers Rain | BKN009 OVC085 | 39 | 35.2 | 86% | 36 | 29.76 | 1008.4 | ||||||
| 06 | 01:55 | S 5 | 10.00 | Light Showers Rain | BKN014 OVC110 | 40.5 | 36.3 | 85% | 38 | 29.74 | 1007.7 | ||||||
| 06 | 00:55 | S 3 | 10.00 | Overcast | BKN018 BKN023 OVC100 | 37 | 34.3 | 90% | 29.72 | 1007.1 | |||||||
| 05 | 23:55 | S 5 | 10.00 | Mostly Cloudy | FEW029 BKN060 BKN200 | 40.6 | 36.1 | 84% | 38 | 29.7 | 1006.4 | ||||||
| 05 | 22:55 | W 3 | 10.00 | Mostly Cloudy | BKN035 BKN080 BKN200 | 42.4 | 35.1 | 75% | 29.68 | 1005.7 | |||||||
| 05 | 21:55 | Calm | 10.00 | Mostly Cloudy | BKN070 BKN140 | 43.3 | 34.5 | 53.4 | 43.2 | 71% | 29.66 | 1005.1 | |||||
| 05 | 20:58 | Vrbl 3 | 10.00 | Mostly Cloudy | FEW055 BKN080 BKN200 | 45.3 | 36.5 | 71% | 29.65 | 1004.7 | |||||||
| 05 | 19:55 | W 12 | 10.00 | Light Showers Rain | FEW030 SCT060 BKN110 BKN150 | 45.9 | 35.1 | 66% | 41 | 29.63 | 1004.0 | ||||||
| 05 | 18:55 | W 13 | 10.00 | Overcast | FEW030 SCT035 SCT046 BKN100 OVC150 | 49.1 | 35.4 | 59% | 45 | 29.62 | 1003.7 | ||||||
| 05 | 17:55 | W 12 | 10.00 | Mostly Cloudy | FEW038 SCT070 SCT180 BKN200 | 52.7 | 35.1 | 51% | 29.59 | 1002.6 | |||||||
| 05 | 16:55 | SW 13 | 10.00 | Mostly Cloudy | FEW050 SCT080 BKN110 BKN180 | 50.9 | 37.6 | 60% | 29.58 | 1002.3 | |||||||
| 05 | 15:55 | W 15 | 10.00 | Mostly Cloudy | FEW033 BKN070TCU BKN200 | 53.6 | 37.4 | 54.9 | 41.7 | 54% | 29.57 | 1001.9 | |||||
| 05 | 14:55 | W 10 | 10.00 | Overcast | SCT040 BKN070 BKN090 OVC110 | 52.2 | 39.2 | 61% | 29.56 | 1001.6 | |||||||
| 05 | 13:55 | W 7 | 10.00 | Mostly Cloudy | SCT047 SCT065 BKN110 BKN200 | 50.4 | 39 | 65% | 29.55 | 1001.2 | |||||||
| 05 | 12:55 | SW 6 | 10.00 | Mostly Cloudy | SCT080 BKN120 BKN160 | 48.9 | 39.2 | 69% | 47 | 29.54 | 1000.9 | ||||||
| 05 | 11:55 | S 6 | 10.00 | Mostly Cloudy | FEW070 SCT110 BKN180 | 47.3 | 37.2 | 68% | 45 | 29.52 | 1000.3 | ||||||
| 05 | 10:55 | S 3 | 10.00 | Mostly Cloudy | SCT095 BKN190 | 45.1 | 36 | 70% | 29.51 | 999.9 | |||||||
| 05 | 09:55 | W 6 | 10.00 | Mostly Cloudy | BKN095 BKN210 | 42.1 | 35.4 | 43 | 34.7 | 77% | 39 | 29.51 | 999.8 | ||||
| 05 | 08:55 | Calm | 10.00 | Showers in Vicinity | FEW037 BKN075 OVC090 | 42.6 | 35.6 | 76% | 29.5 | 999.5 | |||||||
| 05 | 07:55 | SW 6 | 10.00 | Light Showers Rain | BKN070 BKN090 | 40.3 | 34.5 | 80% | 37 | 29.49 | 999.1 | ||||||
| 05 | 06:55 | S 5 | 10.00 | Light Showers Rain | SCT100 BKN200 | 39.4 | 34.7 | 83% | 37 | 29.47 | 998.5 | ||||||
| 05 | 05:55 | SE 3 | 10.00 | Light Showers Rain | BKN075 BKN090 | 38.1 | 33.8 | 84% | 29.46 | 998.2 | |||||||
| 05 | 04:55 | SE 5 | 10.00 | Mostly Cloudy | SCT100 BKN200 | 35.4 | 32.2 | 88% | 32 | 29.46 | 998.2 | ||||||
| 05 | 03:55 | SE 5 | 10.00 | Mostly Cloudy | SCT100 BKN190 | 37.8 | 33.6 | 53.4 | 37.8 | 85% | 35 | 29.47 | 998.5 | ||||
| 05 | 02:55 | SE 6 | 10.00 | Mostly Cloudy | SCT100 BKN150 | 39 | 33.6 | 81% | 35 | 29.48 | 998.8 | ||||||
| 05 | 01:55 | SW 3 | 10.00 | Mostly Cloudy | SCT120 BKN150 | 41.2 | 34.9 | 78% | 29.49 | 999.2 | |||||||
| 05 | 00:55 | Calm | 10.00 | Mostly Cloudy | BKN100 BKN180 | 42.8 | 36.1 | 77% | 29.51 | 999.8 | |||||||
| 04 | 23:55 | W 6 | 10.00 | Mostly Cloudy | SCT100 BKN200 | 42.8 | 34.3 | 72% | 40 | 29.52 | 1000.2 | ||||||
| 04 | 22:55 | Calm | 10.00 | Mostly Cloudy | FEW075 BKN100 BKN170 | 47.3 | 35.8 | 64% | 29.54 | 1000.8 | |||||||
| 04 | 21:55 | SE 7 | 10.00 | Mostly Cloudy | FEW085 SCT090 BKN120 | 53.6 | 35.4 | 57.9 | 53.4 | 50% | 29.57 | 1001.8 | |||||
| 04 | 20:55 | NE 7 | 10.00 | Overcast | BKN110 OVC120 | 55.9 | 35.4 | 46% | 29.58 | 1002.2 | |||||||
| 04 | 19:55 | N 6 | 10.00 | Overcast | FEW050 BKN090 OVC110 | 57.2 | 36 | 45% | 29.62 | 1003.6 | |||||||
| 04 | 18:55 | NE 6 | 10.00 | Overcast | FEW050 BKN095 OVC130 | 57.9 | 35.6 | 43% | 29.66 | 1004.9 | |||||||
| 04 | 17:55 | NE 8 | 10.00 | Light Showers Rain | FEW060 BKN075 OVC090 | 56.5 | 33.6 | 42% | 29.7 | 1006.3 | |||||||
| 04 | 16:55 | N 7 | 10.00 | Overcast | BKN080 OVC100 | 57.4 | 33.3 | 40% | 29.72 | 1007.0 | |||||||
| 04 | 15:55 | NW 6 | 10.00 | Overcast | FEW060 SCT080 BKN100 OVC120 | 57.2 | 33.6 | 57.4 | 46.4 | 41% | 29.76 | 1008.4 | |||||
| 04 | 14:55 | NE 3 | 10.00 | Overcast | SCT050 OVC095 | 57.4 | 33.8 | 41% | 29.79 | 1009.4 | |||||||
| 04 | 13:55 | SE 7 | 10.00 | Overcast | FEW060 BKN090 OVC170 | 55.6 | 33.4 | 43% | 29.83 | 1010.7 | |||||||
| 04 | 12:55 | E 9 | 10.00 | Mostly Cloudy | FEW070 BKN120 BKN140 | 54.7 | 34.3 | 46% | 29.86 | 1011.7 | |||||||
| 04 | 11:55 | N 12 | 10.00 | Mostly Cloudy | FEW060 BKN090 | 53.1 | 32.9 | 46% | 29.88 | 1012.4 | |||||||
| 04 | 10:55 | NE 9 | 10.00 | Mostly Cloudy | FEW040 BKN085 BKN100 | 50.9 | 34.3 | 53% | 29.91 | 1013.4 | |||||||
| 04 | 09:55 | NW 6 | 10.00 | Showers in Vicinity | FEW040 BKN055 BKN090 | 46.6 | 30.7 | 46.6 | 35.4 | 54% | 44 | 29.93 | 1014.2 | ||||
| 04 | 08:55 | Calm | 10.00 | Overcast | FEW049 BKN065 OVC095 | 42.6 | 28.4 | 57% | 29.96 | 1015.2 | |||||||
| 04 | 07:55 | Calm | 10.00 | Showers in Vicinity | BKN060 OVC070 | 40.5 | 30 | 66% | 29.96 | 1015.2 | |||||||
| 04 | 06:55 | Calm | 10.00 | Overcast | OVC047 | 37.9 | 30 | 73% | 29.96 | 1015.2 | |||||||
| 04 | 05:55 | Calm | 10.00 | Overcast | FEW050 OVC075 | 37 | 29.1 | 73% | 29.96 | 1015.2 | |||||||
| 04 | 04:55 | Calm | 10.00 | Mostly Cloudy | FEW060 BKN090 | 37 | 28.6 | 72% | 29.96 | 1015.2 | |||||||
| 04 | 03:55 | Calm | 10.00 | Mostly Cloudy | SCT090 BKN110 | 37 | 29.1 | 47.8 | 37 | 73% | 29.96 | 1015.2 | |||||
| 04 | 00:55 | Calm | 10.00 | Mostly Cloudy | FEW090 BKN110 | 41.2 | 27.9 | 59% | 29.98 | 1015.9 | |||||||
| 03 | 23:55 | W 3 | 10.00 | Mostly Cloudy | FEW070 BKN100 | 42.6 | 28.4 | 57% | 29.98 | 1015.9 | |||||||
| 03 | 22:55 | Calm | 10.00 | Mostly Cloudy | FEW070 BKN110 | 44.4 | 28.4 | 53% | 29.99 | 1016.2 | |||||||
| 03 | 21:55 | Calm | 10.00 | Mostly Cloudy | FEW075 SCT130 BKN150 | 46.2 | 27.7 | 55.4 | 46.2 | 49% | 29.99 | 1016.2 | |||||
| 03 | 20:55 | W 3 | 10.00 | Mostly Cloudy | FEW075 SCT160 BKN200 | 50.2 | 28 | 42% | 29.99 | 1016.2 | |||||||
| 03 | 19:55 | W 5 | 10.00 | Mostly Cloudy | SCT075 BKN200 | 52.9 | 26.6 | 36% | 30 | 1016.5 | |||||||
| 03 | 18:55 | NW 6 | 10.00 | Mostly Cloudy | SCT080 SCT120 BKN200 | 54.3 | 24.3 | 31% | 30 | 1016.6 | |||||||
| 03 | 17:55 | W 8 | 10.00 | Mostly Cloudy | SCT080 SCT110 BKN200 | 55.4 | 26.1 | 32% | 30.01 | 1017.0 | |||||||
| 03 | 16:55 | SW 9 | 10.00 | Mostly Cloudy | BKN075 BKN110 BKN200 | 53.2 | 24.1 | 32% | 30.03 | 1017.6 | |||||||
| 03 | 15:55 | Vrbl 6 | 10.00 | Mostly Cloudy | BKN070 BKN200 | 53.8 | 25.3 | 55.6 | 46.9 | 33% | 30.03 | 1017.6 | |||||
| 03 | 14:55 | NW 7 | 10.00 | Mostly Cloudy | SCT060 SCT080 BKN200 | 53.1 | 25.3 | 34% | 30.05 | 1018.3 | |||||||
| 03 | 13:55 | SE 5 | 10.00 | Mostly Cloudy | SCT080 BKN200 | 52.2 | 26.1 | 36% | 30.07 | 1019.0 | |||||||
| 03 | 12:55 | W 6 | 10.00 | Partly Cloudy | SCT080 SCT160 SCT210 | 52.2 | 24.6 | 34% | 30.07 | 1019.0 | |||||||
| 03 | 11:55 | S 12 | 10.00 | Partly Cloudy | FEW080 FEW120 SCT200 | 50.4 | 25.7 | 38% | 30.07 | 1019.0 | |||||||
| 03 | 10:55 | W 6 | 10.00 | Partly Cloudy | FEW070 SCT120 | 47.7 | 24.4 | 40% | 45 | 30.07 | 1019.0 | ||||||
| 03 | 09:55 | Vrbl 3 | 10.00 | A Few Clouds | FEW070 FEW120 | 47.7 | 28.9 | 47.7 | 29.7 | 48% | 30.06 | 1018.6 | |||||
| 03 | 08:55 | Vrbl 5 | 10.00 | A Few Clouds | FEW090 FEW120 | 41.5 | 30.7 | 66% | 39 | 30.07 | 1019.0 | ||||||
| 03 | 07:55 | Calm | 10.00 | Partly Cloudy | FEW090 SCT120 | 38.5 | 29.5 | 70% | 30.06 | 1018.6 | |||||||
| 03 | 06:55 | Calm | 10.00 | Mostly Cloudy | BKN080 BKN120 | 33.1 | 27.5 | 80% | 30.05 | 1018.3 | |||||||
| 03 | 05:55 | Calm | 10.00 | Mostly Cloudy | SCT085 BKN120 | 30.4 | 26.6 | 86% | 30.05 | 1018.4 | |||||||
| 03 | 04:55 | Calm | 10.00 | Mostly Cloudy | SCT095 BKN120 BKN180 | 31.8 | 27.3 | 83% | 30.03 | 1017.6 | |||||||
| Date | Time (akdt) | Wind (mph) | Vis. (mi.) | Weather | Sky Cond. | Air | Dwpt | Max. | Min. | Relative Humidity | Wind Chill (°F) | Heat Index (°F) | altimeter (in) | sea level (mb) | 1 hr | 3 hr | 6 hr |
| 6 hour | |||||||||||||||||
| Temperature (ºF) | Pressure | Precipitation (in) | |||||||||||||||